Главная страница
METAR-TAF:

METAR-TAF

Аэропорты :

Бёрлингтон, Вермонт, США

широта: 44-28-05N, долгота: 073-09-01W, высота над уровнем моря: 101 м

Текущие метеонаблюдения

Эта сводка был подготовлена 8 часа и 48 минут назад, в 04:54 UTC
Штиль
Температура 18°C
Влажность 73%
Давление 1020 hPa
Видимость: 16.1 км
ясное небо

METAR: KBTV 210454Z 00000KT 10SM CLR 18/13 A3013 RMK AO2 SLP201 T01830133 402830161

Время: 09:42 (13:42 UTC)

Прогноз

Эта сводка был подготовлена 14 часа и 18 минут назад, в 23:24 UTC
Прогноз действительный с 21-го 00 UTC до 21-го 24 UTC
Ветер 4 Узел переменных направлений
Видимость: 10 км
небольшая облачность на высоте 14000 фута
С 21-го 1500 UTC
Ветер 10 Узел от южный с порывами до 20 Узел
Видимость: 10 км
Рассеянная облачность на высоте 12000 фута
С 21-го 2200 UTC
Ветер 10 Узел от юго-юго-восточный
Видимость: 10 км
Рассеянная облачность на высоте 8000 фута

TAF: KBTV 202324Z 2100/2124 VRB04KT P6SM FEW140 FM211500 18010G20KT P6SM BKN120 FM212200 16010KT P6SM BKN080

Метеонаблюдения и прогнозы для более 4000 аэропортов (сводки METAR и TAF).

Имеющиеся станции представлены на карте желтыми и красными точками.

Чтобы увидеть название станции, наведите на нее мышь.

Затем щелкните, чтобы увидеть метеонаблюдения и метеопрогнозы.

Управление картой: чтобы увеличить масштаб, щелкните зеленые кнопки с черным крестиком; чтобы уменьшить масштаб, щелкните зеленую кнопку с тире; для просмотра соседних карт щелкайте зеленые стрелки.


METAR-TAF: